sensor_id;sensor_type;location;lat;lon;timestamp;temperature;humidity
19880;DHT22;10102;50.828;4.416;2022-11-15T00:01:36;13.00;99.90
19880;DHT22;10102;50.828;4.416;2022-11-15T00:04:03;12.90;99.90
19880;DHT22;10102;50.828;4.416;2022-11-15T00:06:29;13.00;99.90
19880;DHT22;10102;50.828;4.416;2022-11-15T00:08:58;12.90;99.90
19880;DHT22;10102;50.828;4.416;2022-11-15T00:11:24;12.90;99.90
19880;DHT22;10102;50.828;4.416;2022-11-15T00:13:50;12.90;99.90
19880;DHT22;10102;50.828;4.416;2022-11-15T00:16:16;12.90;99.90
19880;DHT22;10102;50.828;4.416;2022-11-15T00:18:41;13.00;99.90
19880;DHT22;10102;50.828;4.416;2022-11-15T00:21:12;13.10;99.90
19880;DHT22;10102;50.828;4.416;2022-11-15T00:26:04;13.10;99.90
19880;DHT22;10102;50.828;4.416;2022-11-15T00:28:30;13.30;99.90
19880;DHT22;10102;50.828;4.416;2022-11-15T00:31:03;12.70;99.90
19880;DHT22;10102;50.828;4.416;2022-11-15T00:33:30;13.10;99.90
19880;DHT22;10102;50.828;4.416;2022-11-15T00:38:34;13.20;99.90
19880;DHT22;10102;50.828;4.416;2022-11-15T00:41:01;13.10;99.90
19880;DHT22;10102;50.828;4.416;2022-11-15T00:45:53;13.00;99.90
19880;DHT22;10102;50.828;4.416;2022-11-15T00:48:19;13.10;99.90
19880;DHT22;10102;50.828;4.416;2022-11-15T00:50:44;13.20;99.90
19880;DHT22;10102;50.828;4.416;2022-11-15T00:53:10;13.10;99.90
19880;DHT22;10102;50.828;4.416;2022-11-15T00:55:36;13.30;99.90
19880;DHT22;10102;50.828;4.416;2022-11-15T00:58:01;13.30;99.90
19880;DHT22;10102;50.828;4.416;2022-11-15T01:02:53;13.20;99.90
19880;DHT22;10102;50.828;4.416;2022-11-15T01:05:19;13.10;99.90
19880;DHT22;10102;50.828;4.416;2022-11-15T01:07:45;13.10;99.90
19880;DHT22;10102;50.828;4.416;2022-11-15T01:10:11;13.10;99.90
19880;DHT22;10102;50.828;4.416;2022-11-15T01:12:36;13.10;99.90
19880;DHT22;10102;50.828;4.416;2022-11-15T01:15:03;13.10;99.90
19880;DHT22;10102;50.828;4.416;2022-11-15T01:17:30;13.10;99.90
19880;DHT22;10102;50.828;4.416;2022-11-15T01:19:56;13.10;99.90
19880;DHT22;10102;50.828;4.416;2022-11-15T01:22:22;13.20;99.90
19880;DHT22;10102;50.828;4.416;2022-11-15T01:24:50;13.00;99.90
19880;DHT22;10102;50.828;4.416;2022-11-15T01:27:16;13.20;99.90
19880;DHT22;10102;50.828;4.416;2022-11-15T01:29:42;13.50;99.90
19880;DHT22;10102;50.828;4.416;2022-11-15T01:32:07;13.10;99.90
19880;DHT22;10102;50.828;4.416;2022-11-15T01:34:33;13.20;99.90
19880;DHT22;10102;50.828;4.416;2022-11-15T01:36:59;13.40;99.90
19880;DHT22;10102;50.828;4.416;2022-11-15T01:41:51;13.00;99.90
19880;DHT22;10102;50.828;4.416;2022-11-15T01:47:26;13.10;99.90
19880;DHT22;10102;50.828;4.416;2022-11-15T01:52:25;13.10;99.90
19880;DHT22;10102;50.828;4.416;2022-11-15T01:55:14;13.20;99.90
19880;DHT22;10102;50.828;4.416;2022-11-15T01:57:42;13.20;99.90
19880;DHT22;10102;50.828;4.416;2022-11-15T02:00:10;13.20;99.90
19880;DHT22;10102;50.828;4.416;2022-11-15T02:02:36;13.30;99.90
19880;DHT22;10102;50.828;4.416;2022-11-15T02:05:04;13.20;99.90
19880;DHT22;10102;50.828;4.416;2022-11-15T02:07:31;13.30;99.90
19880;DHT22;10102;50.828;4.416;2022-11-15T02:10:12;13.30;99.90
19880;DHT22;10102;50.828;4.416;2022-11-15T02:12:38;13.30;99.90
19880;DHT22;10102;50.828;4.416;2022-11-15T02:15:05;13.40;99.90
19880;DHT22;10102;50.828;4.416;2022-11-15T02:23:49;13.30;99.90
19880;DHT22;10102;50.828;4.416;2022-11-15T02:32:39;13.10;99.90
19880;DHT22;10102;50.828;4.416;2022-11-15T02:35:48;13.00;99.90
19880;DHT22;10102;50.828;4.416;2022-11-15T02:41:10;12.90;99.90
19880;DHT22;10102;50.828;4.416;2022-11-15T02:46:50;13.20;99.90
19880;DHT22;10102;50.828;4.416;2022-11-15T02:49:35;13.20;99.90
19880;DHT22;10102;50.828;4.416;2022-11-15T02:52:02;13.30;99.90
19880;DHT22;10102;50.828;4.416;2022-11-15T02:54:33;13.50;99.90
19880;DHT22;10102;50.828;4.416;2022-11-15T02:57:02;13.20;99.90
19880;DHT22;10102;50.828;4.416;2022-11-15T03:04:44;13.00;99.90
19880;DHT22;10102;50.828;4.416;2022-11-15T03:07:32;13.20;99.90
19880;DHT22;10102;50.828;4.416;2022-11-15T03:10:06;13.10;99.90
19880;DHT22;10102;50.828;4.416;2022-11-15T03:12:49;13.00;99.90
19880;DHT22;10102;50.828;4.416;2022-11-15T03:15:33;13.10;99.90
19880;DHT22;10102;50.828;4.416;2022-11-15T03:18:01;13.10;99.90
19880;DHT22;10102;50.828;4.416;2022-11-15T03:20:28;13.00;99.90
19880;DHT22;10102;50.828;4.416;2022-11-15T03:23:06;13.20;99.90
19880;DHT22;10102;50.828;4.416;2022-11-15T03:25:36;13.20;99.90
19880;DHT22;10102;50.828;4.416;2022-11-15T03:28:05;13.10;99.90
19880;DHT22;10102;50.828;4.416;2022-11-15T03:30:33;13.20;99.90
19880;DHT22;10102;50.828;4.416;2022-11-15T03:33:00;13.10;99.90
19880;DHT22;10102;50.828;4.416;2022-11-15T03:35:32;13.10;99.90
19880;DHT22;10102;50.828;4.416;2022-11-15T03:38:21;13.00;99.90
19880;DHT22;10102;50.828;4.416;2022-11-15T03:40:53;13.20;99.90
19880;DHT22;10102;50.828;4.416;2022-11-15T03:46:10;12.90;99.90
19880;DHT22;10102;50.828;4.416;2022-11-15T03:48:46;12.80;99.90
19880;DHT22;10102;50.828;4.416;2022-11-15T03:51:12;13.00;99.90
19880;DHT22;10102;50.828;4.416;2022-11-15T03:53:38;13.00;99.90
19880;DHT22;10102;50.828;4.416;2022-11-15T03:56:06;13.00;99.90
19880;DHT22;10102;50.828;4.416;2022-11-15T03:58:31;12.90;99.90
19880;DHT22;10102;50.828;4.416;2022-11-15T04:04:22;12.80;99.90
19880;DHT22;10102;50.828;4.416;2022-11-15T04:06:48;12.70;99.90
19880;DHT22;10102;50.828;4.416;2022-11-15T04:09:13;12.70;99.90
19880;DHT22;10102;50.828;4.416;2022-11-15T04:11:39;12.70;99.90
19880;DHT22;10102;50.828;4.416;2022-11-15T04:14:05;12.80;99.90
19880;DHT22;10102;50.828;4.416;2022-11-15T04:16:30;12.80;99.90
19880;DHT22;10102;50.828;4.416;2022-11-15T04:18:56;12.50;99.90
19880;DHT22;10102;50.828;4.416;2022-11-15T04:21:40;12.80;99.90
19880;DHT22;10102;50.828;4.416;2022-11-15T04:24:24;12.80;99.90
19880;DHT22;10102;50.828;4.416;2022-11-15T04:26:50;12.80;99.90
19880;DHT22;10102;50.828;4.416;2022-11-15T04:29:16;12.60;99.90
19880;DHT22;10102;50.828;4.416;2022-11-15T04:32:01;12.80;99.90
19880;DHT22;10102;50.828;4.416;2022-11-15T04:34:27;12.70;99.90
19880;DHT22;10102;50.828;4.416;2022-11-15T04:36:52;13.20;99.90
19880;DHT22;10102;50.828;4.416;2022-11-15T04:39:37;12.60;99.90
19880;DHT22;10102;50.828;4.416;2022-11-15T04:42:03;12.70;99.90
19880;DHT22;10102;50.828;4.416;2022-11-15T04:44:29;12.40;99.90
19880;DHT22;10102;50.828;4.416;2022-11-15T04:46:54;12.40;99.90
19880;DHT22;10102;50.828;4.416;2022-11-15T04:51:46;12.20;99.90
19880;DHT22;10102;50.828;4.416;2022-11-15T04:54:12;12.30;99.90
19880;DHT22;10102;50.828;4.416;2022-11-15T04:56:37;12.30;99.90
19880;DHT22;10102;50.828;4.416;2022-11-15T04:59:03;12.30;99.90
19880;DHT22;10102;50.828;4.416;2022-11-15T05:01:29;11.90;99.90
19880;DHT22;10102;50.828;4.416;2022-11-15T05:03:54;12.00;99.90
19880;DHT22;10102;50.828;4.416;2022-11-15T05:06:38;12.40;99.90
19880;DHT22;10102;50.828;4.416;2022-11-15T05:09:04;12.40;99.90
19880;DHT22;10102;50.828;4.416;2022-11-15T05:11:30;12.20;99.90
19880;DHT22;10102;50.828;4.416;2022-11-15T05:13:56;12.30;99.90
19880;DHT22;10102;50.828;4.416;2022-11-15T05:18:54;12.10;99.90
19880;DHT22;10102;50.828;4.416;2022-11-15T05:21:20;12.10;99.90
19880;DHT22;10102;50.828;4.416;2022-11-15T05:23:46;12.30;99.90
19880;DHT22;10102;50.828;4.416;2022-11-15T05:26:13;12.10;99.90
19880;DHT22;10102;50.828;4.416;2022-11-15T05:28:40;12.20;99.90
19880;DHT22;10102;50.828;4.416;2022-11-15T05:31:08;12.10;99.90
19880;DHT22;10102;50.828;4.416;2022-11-15T05:33:35;12.00;99.90
19880;DHT22;10102;50.828;4.416;2022-11-15T05:36:05;12.30;99.90
19880;DHT22;10102;50.828;4.416;2022-11-15T05:38:33;11.80;99.90
19880;DHT22;10102;50.828;4.416;2022-11-15T05:41:00;11.60;99.90
19880;DHT22;10102;50.828;4.416;2022-11-15T05:43:27;14.00;99.90
19880;DHT22;10102;50.828;4.416;2022-11-15T05:46:10;11.90;99.90
19880;DHT22;10102;50.828;4.416;2022-11-15T05:48:39;11.70;99.90
19880;DHT22;10102;50.828;4.416;2022-11-15T05:51:06;11.80;99.90
19880;DHT22;10102;50.828;4.416;2022-11-15T05:53:33;11.60;99.90
19880;DHT22;10102;50.828;4.416;2022-11-15T05:56:00;11.80;99.90
19880;DHT22;10102;50.828;4.416;2022-11-15T05:58:25;11.90;99.90
19880;DHT22;10102;50.828;4.416;2022-11-15T06:00:51;11.80;99.90
19880;DHT22;10102;50.828;4.416;2022-11-15T06:03:17;11.70;99.90
19880;DHT22;10102;50.828;4.416;2022-11-15T06:05:42;11.60;99.90
19880;DHT22;10102;50.828;4.416;2022-11-15T06:08:08;11.60;99.90
19880;DHT22;10102;50.828;4.416;2022-11-15T06:10:34;11.50;99.90
19880;DHT22;10102;50.828;4.416;2022-11-15T06:13:00;11.40;99.90
19880;DHT22;10102;50.828;4.416;2022-11-15T06:15:27;11.40;99.90
19880;DHT22;10102;50.828;4.416;2022-11-15T06:17:55;11.20;99.90
19880;DHT22;10102;50.828;4.416;2022-11-15T06:20:24;11.10;99.90
19880;DHT22;10102;50.828;4.416;2022-11-15T06:22:49;11.20;99.90
19880;DHT22;10102;50.828;4.416;2022-11-15T06:25:15;11.40;99.90
19880;DHT22;10102;50.828;4.416;2022-11-15T06:27:41;11.30;99.90
19880;DHT22;10102;50.828;4.416;2022-11-15T06:30:07;11.20;99.90
19880;DHT22;10102;50.828;4.416;2022-11-15T06:32:32;11.30;99.90
19880;DHT22;10102;50.828;4.416;2022-11-15T06:34:58;11.20;99.90
19880;DHT22;10102;50.828;4.416;2022-11-15T06:37:24;11.20;99.90
19880;DHT22;10102;50.828;4.416;2022-11-15T06:39:49;11.30;99.90
19880;DHT22;10102;50.828;4.416;2022-11-15T06:42:15;11.30;99.90
19880;DHT22;10102;50.828;4.416;2022-11-15T06:44:41;11.20;99.90
19880;DHT22;10102;50.828;4.416;2022-11-15T06:47:06;11.30;99.90
19880;DHT22;10102;50.828;4.416;2022-11-15T06:49:32;11.20;99.90
19880;DHT22;10102;50.828;4.416;2022-11-15T06:51:57;11.20;99.90
19880;DHT22;10102;50.828;4.416;2022-11-15T06:54:23;11.00;99.90
19880;DHT22;10102;50.828;4.416;2022-11-15T06:56:49;11.10;99.90
19880;DHT22;10102;50.828;4.416;2022-11-15T06:59:14;11.10;99.90
19880;DHT22;10102;50.828;4.416;2022-11-15T07:01:40;11.10;99.90
19880;DHT22;10102;50.828;4.416;2022-11-15T07:04:06;11.00;99.90
19880;DHT22;10102;50.828;4.416;2022-11-15T07:06:31;11.00;99.90
19880;DHT22;10102;50.828;4.416;2022-11-15T07:08:57;11.30;99.90
19880;DHT22;10102;50.828;4.416;2022-11-15T07:11:23;11.00;99.90
19880;DHT22;10102;50.828;4.416;2022-11-15T07:13:48;10.90;99.90
19880;DHT22;10102;50.828;4.416;2022-11-15T07:16:14;10.90;99.90
19880;DHT22;10102;50.828;4.416;2022-11-15T07:18:40;10.90;99.90
19880;DHT22;10102;50.828;4.416;2022-11-15T07:21:08;10.50;99.90
19880;DHT22;10102;50.828;4.416;2022-11-15T07:23:36;10.70;99.90
19880;DHT22;10102;50.828;4.416;2022-11-15T07:26:03;10.70;99.90
19880;DHT22;10102;50.828;4.416;2022-11-15T07:28:29;10.70;99.90
19880;DHT22;10102;50.828;4.416;2022-11-15T07:30:55;10.80;99.90
19880;DHT22;10102;50.828;4.416;2022-11-15T07:33:21;10.80;99.90
19880;DHT22;10102;50.828;4.416;2022-11-15T07:35:47;10.90;99.90
19880;DHT22;10102;50.828;4.416;2022-11-15T07:38:16;10.70;99.90
19880;DHT22;10102;50.828;4.416;2022-11-15T07:40:45;10.60;99.90
19880;DHT22;10102;50.828;4.416;2022-11-15T07:43:11;10.70;99.90
19880;DHT22;10102;50.828;4.416;2022-11-15T07:45:45;10.70;99.90
19880;DHT22;10102;50.828;4.416;2022-11-15T07:48:11;10.70;99.90
19880;DHT22;10102;50.828;4.416;2022-11-15T07:50:40;10.80;99.90
19880;DHT22;10102;50.828;4.416;2022-11-15T07:53:07;10.80;99.90
19880;DHT22;10102;50.828;4.416;2022-11-15T07:58:06;10.60;99.90
19880;DHT22;10102;50.828;4.416;2022-11-15T08:00:33;10.90;99.90
19880;DHT22;10102;50.828;4.416;2022-11-15T08:03:13;10.80;99.90
19880;DHT22;10102;50.828;4.416;2022-11-15T08:05:41;11.10;99.90
19880;DHT22;10102;50.828;4.416;2022-11-15T08:08:08;11.00;99.90
19880;DHT22;10102;50.828;4.416;2022-11-15T08:10:34;11.00;99.90
19880;DHT22;10102;50.828;4.416;2022-11-15T08:13:06;11.20;99.90
19880;DHT22;10102;50.828;4.416;2022-11-15T08:15:33;11.00;99.90
19880;DHT22;10102;50.828;4.416;2022-11-15T08:18:04;11.00;99.90
19880;DHT22;10102;50.828;4.416;2022-11-15T08:20:30;10.80;99.90
19880;DHT22;10102;50.828;4.416;2022-11-15T08:22:57;10.90;99.90
19880;DHT22;10102;50.828;4.416;2022-11-15T08:25:24;11.00;99.90
19880;DHT22;10102;50.828;4.416;2022-11-15T08:27:56;10.90;99.90
19880;DHT22;10102;50.828;4.416;2022-11-15T08:30:22;10.80;99.90
19880;DHT22;10102;50.828;4.416;2022-11-15T08:32:50;10.90;99.90
19880;DHT22;10102;50.828;4.416;2022-11-15T08:35:16;11.10;99.90
19880;DHT22;10102;50.828;4.416;2022-11-15T08:37:42;11.10;99.90
19880;DHT22;10102;50.828;4.416;2022-11-15T08:40:08;11.30;99.90
19880;DHT22;10102;50.828;4.416;2022-11-15T08:42:33;11.10;99.90
19880;DHT22;10102;50.828;4.416;2022-11-15T08:44:59;11.20;99.90
19880;DHT22;10102;50.828;4.416;2022-11-15T08:47:25;11.30;99.90
19880;DHT22;10102;50.828;4.416;2022-11-15T08:49:52;11.30;99.90
19880;DHT22;10102;50.828;4.416;2022-11-15T08:52:17;12.70;99.90
19880;DHT22;10102;50.828;4.416;2022-11-15T08:54:43;11.20;99.90
19880;DHT22;10102;50.828;4.416;2022-11-15T08:57:09;11.20;99.90
19880;DHT22;10102;50.828;4.416;2022-11-15T08:59:36;11.20;99.90
19880;DHT22;10102;50.828;4.416;2022-11-15T09:02:03;11.10;99.90
19880;DHT22;10102;50.828;4.416;2022-11-15T09:04:29;10.40;99.90
19880;DHT22;10102;50.828;4.416;2022-11-15T09:06:55;11.40;99.90
19880;DHT22;10102;50.828;4.416;2022-11-15T09:09:20;11.60;99.90
19880;DHT22;10102;50.828;4.416;2022-11-15T09:11:46;11.50;99.90
19880;DHT22;10102;50.828;4.416;2022-11-15T09:14:14;11.50;99.90
19880;DHT22;10102;50.828;4.416;2022-11-15T09:16:40;11.40;99.90
19880;DHT22;10102;50.828;4.416;2022-11-15T09:19:05;11.50;99.90
19880;DHT22;10102;50.828;4.416;2022-11-15T09:21:31;11.40;99.90
19880;DHT22;10102;50.828;4.416;2022-11-15T09:23:57;11.60;99.90
19880;DHT22;10102;50.828;4.416;2022-11-15T09:26:23;11.60;99.90
19880;DHT22;10102;50.828;4.416;2022-11-15T09:28:49;11.90;99.90
19880;DHT22;10102;50.828;4.416;2022-11-15T09:31:15;12.10;99.90
19880;DHT22;10102;50.828;4.416;2022-11-15T09:33:43;12.20;99.90
19880;DHT22;10102;50.828;4.416;2022-11-15T09:36:10;12.30;99.90
19880;DHT22;10102;50.828;4.416;2022-11-15T09:38:36;12.40;99.90
19880;DHT22;10102;50.828;4.416;2022-11-15T09:46:59;13.90;99.90
19880;DHT22;10102;50.828;4.416;2022-11-15T09:49:21;14.30;99.90
19880;DHT22;10102;50.828;4.416;2022-11-15T09:51:52;14.10;99.90
19880;DHT22;10102;50.828;4.416;2022-11-15T09:54:31;14.00;99.90
19880;DHT22;10102;50.828;4.416;2022-11-15T09:59:55;14.00;99.90
19880;DHT22;10102;50.828;4.416;2022-11-15T10:04:57;13.70;99.90
19880;DHT22;10102;50.828;4.416;2022-11-15T10:10:24;14.70;99.90
19880;DHT22;10102;50.828;4.416;2022-11-15T10:12:53;14.70;99.90
19880;DHT22;10102;50.828;4.416;2022-11-15T10:15:19;15.60;99.90
19880;DHT22;10102;50.828;4.416;2022-11-15T10:20:23;15.80;99.90
19880;DHT22;10102;50.828;4.416;2022-11-15T10:23:01;16.00;99.90
19880;DHT22;10102;50.828;4.416;2022-11-15T10:25:34;17.30;99.90
19880;DHT22;10102;50.828;4.416;2022-11-15T10:28:21;17.10;99.90
19880;DHT22;10102;50.828;4.416;2022-11-15T10:30:50;17.50;99.90
19880;DHT22;10102;50.828;4.416;2022-11-15T10:38:57;17.60;99.90
19880;DHT22;10102;50.828;4.416;2022-11-15T10:41:30;17.60;99.90
19880;DHT22;10102;50.828;4.416;2022-11-15T10:46:46;16.20;99.90
19880;DHT22;10102;50.828;4.416;2022-11-15T10:51:56;15.10;99.90
19880;DHT22;10102;50.828;4.416;2022-11-15T10:54:33;15.10;99.90
19880;DHT22;10102;50.828;4.416;2022-11-15T10:57:06;14.80;99.90
19880;DHT22;10102;50.828;4.416;2022-11-15T10:59:36;14.90;99.90
19880;DHT22;10102;50.828;4.416;2022-11-15T11:02:08;15.40;99.90
19880;DHT22;10102;50.828;4.416;2022-11-15T11:04:51;15.20;99.90
19880;DHT22;10102;50.828;4.416;2022-11-15T11:07:23;15.80;99.90
19880;DHT22;10102;50.828;4.416;2022-11-15T11:09:57;15.70;99.90
19880;DHT22;10102;50.828;4.416;2022-11-15T11:12:28;15.10;99.90
19880;DHT22;10102;50.828;4.416;2022-11-15T11:14:55;14.80;99.90
19880;DHT22;10102;50.828;4.416;2022-11-15T11:20:03;15.00;99.90
19880;DHT22;10102;50.828;4.416;2022-11-15T11:31:40;15.80;99.90
19880;DHT22;10102;50.828;4.416;2022-11-15T11:44:43;16.70;99.90
19880;DHT22;10102;50.828;4.416;2022-11-15T11:47:23;15.70;99.90
19880;DHT22;10102;50.828;4.416;2022-11-15T11:49:59;15.60;99.90
19880;DHT22;10102;50.828;4.416;2022-11-15T11:53:08;15.00;99.90
19880;DHT22;10102;50.828;4.416;2022-11-15T11:55:51;14.90;99.90
19880;DHT22;10102;50.828;4.416;2022-11-15T11:58:39;14.70;99.90
19880;DHT22;10102;50.828;4.416;2022-11-15T12:01:34;14.40;99.90
19880;DHT22;10102;50.828;4.416;2022-11-15T12:04:25;14.40;99.90
19880;DHT22;10102;50.828;4.416;2022-11-15T12:07:03;14.30;99.90
19880;DHT22;10102;50.828;4.416;2022-11-15T12:12:35;14.50;99.90
19880;DHT22;10102;50.828;4.416;2022-11-15T12:15:12;14.00;99.90
19880;DHT22;10102;50.828;4.416;2022-11-15T12:17:40;14.30;99.90
19880;DHT22;10102;50.828;4.416;2022-11-15T12:20:22;14.50;99.90
19880;DHT22;10102;50.828;4.416;2022-11-15T12:23:15;14.60;99.90
19880;DHT22;10102;50.828;4.416;2022-11-15T12:25:54;14.70;99.90
19880;DHT22;10102;50.828;4.416;2022-11-15T12:28:50;14.70;99.90
19880;DHT22;10102;50.828;4.416;2022-11-15T12:31:41;14.60;99.90
19880;DHT22;10102;50.828;4.416;2022-11-15T12:36:49;14.60;99.90
19880;DHT22;10102;50.828;4.416;2022-11-15T12:39:16;14.60;99.90
19880;DHT22;10102;50.828;4.416;2022-11-15T12:41:45;14.50;99.90
19880;DHT22;10102;50.828;4.416;2022-11-15T13:02:22;15.10;99.90
19880;DHT22;10102;50.828;4.416;2022-11-15T13:04:50;14.80;99.90
19880;DHT22;10102;50.828;4.416;2022-11-15T13:13:01;15.10;99.90
19880;DHT22;10102;50.828;4.416;2022-11-15T13:17:58;15.20;99.90
19880;DHT22;10102;50.828;4.416;2022-11-15T13:20:30;14.80;99.90
19880;DHT22;10102;50.828;4.416;2022-11-15T13:23:15;14.70;99.90
19880;DHT22;10102;50.828;4.416;2022-11-15T13:28:44;14.70;99.90
19880;DHT22;10102;50.828;4.416;2022-11-15T13:33:45;14.80;99.90
19880;DHT22;10102;50.828;4.416;2022-11-15T13:36:21;14.50;99.90
19880;DHT22;10102;50.828;4.416;2022-11-15T13:38:55;14.60;99.90
19880;DHT22;10102;50.828;4.416;2022-11-15T13:41:29;14.70;99.90
19880;DHT22;10102;50.828;4.416;2022-11-15T13:43:56;14.60;99.90
19880;DHT22;10102;50.828;4.416;2022-11-15T13:46:30;14.50;99.90
19880;DHT22;10102;50.828;4.416;2022-11-15T13:48:58;14.50;99.90
19880;DHT22;10102;50.828;4.416;2022-11-15T13:57:35;14.40;99.90
19880;DHT22;10102;50.828;4.416;2022-11-15T13:59:48;14.40;99.90
19880;DHT22;10102;50.828;4.416;2022-11-15T14:02:20;14.60;99.90
19880;DHT22;10102;50.828;4.416;2022-11-15T14:07:21;14.80;99.90
19880;DHT22;10102;50.828;4.416;2022-11-15T14:09:47;14.40;99.90
19880;DHT22;10102;50.828;4.416;2022-11-15T14:12:32;14.30;99.90
19880;DHT22;10102;50.828;4.416;2022-11-15T14:14:59;14.40;99.90
19880;DHT22;10102;50.828;4.416;2022-11-15T14:19:53;14.40;99.90
19880;DHT22;10102;50.828;4.416;2022-11-15T14:27:29;14.60;99.90
19880;DHT22;10102;50.828;4.416;2022-11-15T14:29:55;14.50;99.90
19880;DHT22;10102;50.828;4.416;2022-11-15T14:32:26;14.50;99.90
19880;DHT22;10102;50.828;4.416;2022-11-15T14:35:00;14.80;99.90
19880;DHT22;10102;50.828;4.416;2022-11-15T14:37:30;14.30;99.90
19880;DHT22;10102;50.828;4.416;2022-11-15T14:39:59;14.40;99.90
19880;DHT22;10102;50.828;4.416;2022-11-15T14:42:25;14.40;99.90
19880;DHT22;10102;50.828;4.416;2022-11-15T14:44:50;14.40;99.90
19880;DHT22;10102;50.828;4.416;2022-11-15T14:47:17;14.20;99.90
19880;DHT22;10102;50.828;4.416;2022-11-15T14:49:43;14.40;99.90
19880;DHT22;10102;50.828;4.416;2022-11-15T14:52:31;14.30;99.90
19880;DHT22;10102;50.828;4.416;2022-11-15T14:55:01;14.20;99.90
19880;DHT22;10102;50.828;4.416;2022-11-15T14:59:54;14.30;99.90
19880;DHT22;10102;50.828;4.416;2022-11-15T15:02:21;14.20;99.90
19880;DHT22;10102;50.828;4.416;2022-11-15T15:04:47;14.10;99.90
19880;DHT22;10102;50.828;4.416;2022-11-15T15:07:14;14.00;99.90
19880;DHT22;10102;50.828;4.416;2022-11-15T15:09:40;13.90;99.90
19880;DHT22;10102;50.828;4.416;2022-11-15T15:12:17;14.00;99.90
19880;DHT22;10102;50.828;4.416;2022-11-15T15:14:44;14.00;99.90
19880;DHT22;10102;50.828;4.416;2022-11-15T15:17:10;14.10;99.90
19880;DHT22;10102;50.828;4.416;2022-11-15T15:19:36;14.00;99.90
19880;DHT22;10102;50.828;4.416;2022-11-15T15:22:01;14.00;99.90
19880;DHT22;10102;50.828;4.416;2022-11-15T15:24:27;13.80;99.90
19880;DHT22;10102;50.828;4.416;2022-11-15T15:26:53;13.90;99.90
19880;DHT22;10102;50.828;4.416;2022-11-15T15:29:18;13.90;99.90
19880;DHT22;10102;50.828;4.416;2022-11-15T15:31:44;13.80;99.90
19880;DHT22;10102;50.828;4.416;2022-11-15T15:34:10;13.90;99.90
19880;DHT22;10102;50.828;4.416;2022-11-15T15:36:35;13.90;99.90
19880;DHT22;10102;50.828;4.416;2022-11-15T15:39:01;14.00;99.90
19880;DHT22;10102;50.828;4.416;2022-11-15T15:41:26;13.80;99.90
19880;DHT22;10102;50.828;4.416;2022-11-15T15:43:52;13.80;99.90
19880;DHT22;10102;50.828;4.416;2022-11-15T15:46:19;14.10;99.90
19880;DHT22;10102;50.828;4.416;2022-11-15T15:48:45;14.00;99.90
19880;DHT22;10102;50.828;4.416;2022-11-15T15:51:11;13.70;99.90
19880;DHT22;10102;50.828;4.416;2022-11-15T15:53:38;13.80;99.90
19880;DHT22;10102;50.828;4.416;2022-11-15T15:56:04;14.10;99.90
19880;DHT22;10102;50.828;4.416;2022-11-15T15:58:29;13.70;99.90
19880;DHT22;10102;50.828;4.416;2022-11-15T16:00:57;13.60;99.90
19880;DHT22;10102;50.828;4.416;2022-11-15T16:03:22;13.60;99.90
19880;DHT22;10102;50.828;4.416;2022-11-15T16:05:50;13.50;99.90
19880;DHT22;10102;50.828;4.416;2022-11-15T16:08:20;13.40;99.90
19880;DHT22;10102;50.828;4.416;2022-11-15T16:10:47;13.50;99.90
19880;DHT22;10102;50.828;4.416;2022-11-15T16:13:13;13.50;99.90
19880;DHT22;10102;50.828;4.416;2022-11-15T16:15:39;13.60;99.90
19880;DHT22;10102;50.828;4.416;2022-11-15T16:18:06;13.50;99.90
19880;DHT22;10102;50.828;4.416;2022-11-15T16:20:41;13.60;99.90
19880;DHT22;10102;50.828;4.416;2022-11-15T16:23:19;13.60;99.90
19880;DHT22;10102;50.828;4.416;2022-11-15T16:25:51;13.70;99.90
19880;DHT22;10102;50.828;4.416;2022-11-15T16:30:48;13.40;99.90
19880;DHT22;10102;50.828;4.416;2022-11-15T16:33:14;13.40;99.90
19880;DHT22;10102;50.828;4.416;2022-11-15T16:35:43;13.10;99.90
19880;DHT22;10102;50.828;4.416;2022-11-15T16:38:14;13.30;99.90
19880;DHT22;10102;50.828;4.416;2022-11-15T16:40:40;13.50;99.90
19880;DHT22;10102;50.828;4.416;2022-11-15T16:43:06;13.50;99.90
19880;DHT22;10102;50.828;4.416;2022-11-15T16:45:33;13.90;99.90
19880;DHT22;10102;50.828;4.416;2022-11-15T16:47:59;13.40;99.90
19880;DHT22;10102;50.828;4.416;2022-11-15T16:50:28;13.60;99.90
19880;DHT22;10102;50.828;4.416;2022-11-15T16:52:55;13.70;99.90
19880;DHT22;10102;50.828;4.416;2022-11-15T16:55:23;13.60;99.90
19880;DHT22;10102;50.828;4.416;2022-11-15T16:57:50;13.70;99.90
19880;DHT22;10102;50.828;4.416;2022-11-15T17:00:17;13.70;99.90
19880;DHT22;10102;50.828;4.416;2022-11-15T17:02:44;13.50;99.90
19880;DHT22;10102;50.828;4.416;2022-11-15T17:05:11;13.50;99.90
19880;DHT22;10102;50.828;4.416;2022-11-15T17:07:38;13.40;99.90
19880;DHT22;10102;50.828;4.416;2022-11-15T17:10:04;13.40;99.90
19880;DHT22;10102;50.828;4.416;2022-11-15T17:12:30;13.50;99.90
19880;DHT22;10102;50.828;4.416;2022-11-15T17:14:56;13.50;99.90
19880;DHT22;10102;50.828;4.416;2022-11-15T17:17:22;13.50;99.90
19880;DHT22;10102;50.828;4.416;2022-11-15T17:19:47;13.50;99.90
19880;DHT22;10102;50.828;4.416;2022-11-15T17:22:13;13.50;99.90
19880;DHT22;10102;50.828;4.416;2022-11-15T17:24:39;13.50;99.90
19880;DHT22;10102;50.828;4.416;2022-11-15T17:31:56;13.50;99.90
19880;DHT22;10102;50.828;4.416;2022-11-15T17:34:22;13.30;99.90
19880;DHT22;10102;50.828;4.416;2022-11-15T17:36:48;13.50;99.90
19880;DHT22;10102;50.828;4.416;2022-11-15T17:39:13;13.80;99.90
19880;DHT22;10102;50.828;4.416;2022-11-15T17:41:39;13.60;99.90
19880;DHT22;10102;50.828;4.416;2022-11-15T17:44:05;13.70;99.90
19880;DHT22;10102;50.828;4.416;2022-11-15T17:46:31;13.60;99.90
19880;DHT22;10102;50.828;4.416;2022-11-15T17:48:58;13.50;99.90
19880;DHT22;10102;50.828;4.416;2022-11-15T17:51:24;13.60;99.90
19880;DHT22;10102;50.828;4.416;2022-11-15T17:53:50;13.60;99.90
19880;DHT22;10102;50.828;4.416;2022-11-15T17:56:21;13.40;99.90
19880;DHT22;10102;50.828;4.416;2022-11-15T17:58:51;13.20;99.90
19880;DHT22;10102;50.828;4.416;2022-11-15T18:01:19;13.40;99.90
19880;DHT22;10102;50.828;4.416;2022-11-15T18:03:46;13.50;99.90
19880;DHT22;10102;50.828;4.416;2022-11-15T18:06:12;13.40;99.90
19880;DHT22;10102;50.828;4.416;2022-11-15T18:08:39;13.40;99.90
19880;DHT22;10102;50.828;4.416;2022-11-15T18:11:08;13.30;99.90
19880;DHT22;10102;50.828;4.416;2022-11-15T18:13:35;13.30;99.90
19880;DHT22;10102;50.828;4.416;2022-11-15T18:16:02;13.40;99.90
19880;DHT22;10102;50.828;4.416;2022-11-15T18:18:33;13.60;99.90
19880;DHT22;10102;50.828;4.416;2022-11-15T18:23:25;13.50;99.90
19880;DHT22;10102;50.828;4.416;2022-11-15T18:25:51;13.50;99.90
19880;DHT22;10102;50.828;4.416;2022-11-15T18:28:17;13.60;99.90
19880;DHT22;10102;50.828;4.416;2022-11-15T18:30:42;13.50;99.90
19880;DHT22;10102;50.828;4.416;2022-11-15T18:33:08;13.50;99.90